Impacts TAF Board
For situational awareness. Not to be used for flight planning purposes.
IDs:

KJAX - Jacksonville Intl, FL, US

Issued at 2015 UTC 21 May 2022
Updated at 2208 UTC 21 May 2022
Potential Impact None Slight Moderate High
Time2156Z 21/23Z 22/00Z 22/01Z 22/02Z 22/03Z 22/04Z 22/05Z 22/06Z 22/07Z 22/08Z 22/09Z 22/10Z 22/11Z>>
Type OBS PRVL PRVL PRVL PRVL PRVL PRVL PRVL PRVL PRVL PRVL PRVL PRVL PRVL
VIS 4 5 5 >6 >6 >6 >6 >6 >6 >6 >6 >6 >6 >6
CIG 35 25 25 50 50 50 50 50 50 50 150 150 150 150
Cover OVC OVC OVC OVC OVC OVC OVC OVC OVC OVC BKN BKN BKN BKN
FltCat MVFR MVFR MVFR VFR VFR VFR VFR VFR VFR VFR VFR VFR VFR VFR
WX -TSRA BR TSRA BR TSRA BR VCSH VCSH VCSH VCSH VCSH VCSH VCSH -- -- -- --
WDir 70 VRB VRB 160 160 160 160 160 160 160 VRB VRB VRB VRB
WSpd 6 5 5 8 8 8 8 8 8 8 0 0 0 0
WGst -- -- -- -- -- -- -- -- -- -- -- -- -- --
WSHgt -- -- -- -- -- -- -- -- -- -- -- -- -- --
WSDir -- -- -- -- -- -- -- -- -- -- -- -- -- --
WSSpd -- -- -- -- -- -- -- -- -- -- -- -- -- --
R08/26
XWnd 0 VRB VRB -8 -8 -8 -8 -8 -8 -8 VRB VRB VRB VRB
R14/32
XWnd 5 VRB VRB -4 -4 -4 -4 -4 -4 -4 VRB VRB VRB VRB
Raw TAF
KJAX 212015Z 2120/2218 10010G15KT P6SM VCTS SCT025 BKN035CB BKN120
  TEMPO 2120/2122 VRB15G30KT 2SM +TSRA BR BKN015 BKN025CB OVC070
  FM212200 VRB05KT 5SM TSRA BR SCT015 BKN025CB OVC050
  FM220100 16008KT P6SM VCSH SCT025 BKN050 OVC120
  FM220800 00000KT P6SM SCT090 BKN150
  FM221300 24005KT P6SM SCT020 BKN200


Raw METAR
KJAX 212156Z 07006KT 4SM -TSRA BR FEW015 BKN035CB BKN050 OVC160 22/21 A3019 RMK AO2 PK WND 36031/2057 LTG DSNT ALQDS SLP222 CONS LTGICCCCG OHD TS OHD MOV NE P0021 T02170206
KJAX 212149Z 07007KT 6SM -TSRA FEW015 BKN035CB BKN050 OVC160 22/21 A3018 RMK AO2 PK WND 36031/2057 LTG DSNT ALQDS CONS LTGICCCCG OHD TS OHD MOV NE P0019 T02170206
KJAX 212135Z 05008KT 2 1/2SM TSRA BR FEW015 BKN035CB BKN050 OVC160 22/21 A3018 RMK AO2 PK WND 36031/2057 LTG DSNT ALQDS CONS LTGICCCCG OHD TS OHD MOV NE P0009 T02220206
KJAX 212056Z 36020G37KT 10SM -TSRA FEW015 BKN035CB BKN050 OVC160 24/20 A3016 RMK AO2 PK WND 35037/2052 LTG DSNT ALQDS RAB56 TSB27 PRESRR SLP212 OCNL LTGICCCCG OHD TS OHD MOV NE P0000 60000 T02390200 53002 $
KJAX 212028Z 31009G16KT 10SM TS FEW020 SCT035CB BKN050 BKN160 OVC250 27/23 A3013
KJAX 212023Z VRB05KT 10SM FEW020 SCT035CB BKN050 BKN160 OVC250 28/23 A3012
KJAX 211956Z 09005KT 10SM FEW035 SCT043 SCT050 BKN160 BKN250 29/23 A3013 RMK AO2 LTG DSNT N AND S AND NW SLP205 T02940228 $

METAR Board
Radar Display
Forecast Discussion
For situational awareness. Not to be used for flight planning purposes.